Time;durP1;ratioP1;P1;durP2;ratioP2;P2;SDS_P1;SDS_P2;PMS_P1;PMS_P2;Temp;Humidity;BMP_temperature;BMP_pressure;BME280_temperature;BME280_humidity;BME280_pressure;Samples;Min_cycle;Max_cycle;Signal;HPM_P1;HPM_P2
2022/10/24 00:02:04;;;;;;;34.67;17.73;;;;;;;13.18;64.34;95986.44;5020764;28;20087;-76
2022/10/24 00:04:34;;;;;;;32.38;16.58;;;;;;;12.16;64.38;95839.34;5038773;28;20052;-76
2022/10/24 00:07:00;;;;;;;29.85;14.73;;;;;;;13.17;64.45;95992.81;5038988;28;20526;-76
2022/10/24 00:09:25;;;;;;;27.23;14.45;;;;;;;12.89;64.52;95945.44;5038837;28;20123;-75
2022/10/24 00:11:50;;;;;;;31.60;14.68;;;;;;;13.17;64.04;95984.81;5020704;28;20048;-76
2022/10/24 00:14:16;;;;;;;25.23;14.73;;;;;;;12.91;64.22;95937.97;5038810;28;20057;-75
2022/10/24 00:16:41;;;;;;;28.20;16.45;;;;;;;12.76;64.26;95912.19;5039132;28;20039;-75
2022/10/24 00:19:07;;;;;;;25.35;14.73;;;;;;;12.64;64.41;95903.69;5039182;28;20041;-76
2022/10/24 00:21:33;;;;;;;33.13;15.52;;;;;;;12.38;64.40;95865.66;5038939;28;20052;-76
2022/10/24 00:23:59;;;;;;;34.97;15.32;;;;;;;12.79;64.40;95938.28;5020638;28;20042;-76
2022/10/24 00:26:24;;;;;;;29.33;15.13;;;;;;;13.04;64.49;95982.69;5038812;28;20045;-75
2022/10/24 00:28:49;;;;;;;29.75;14.98;;;;;;;12.86;64.64;95949.44;5038946;28;20939;-75
2022/10/24 00:31:17;;;;;;;28.92;14.18;;;;;;;12.42;64.62;95893.34;5038413;28;20040;-75
2022/10/24 00:33:44;;;;;;;31.30;14.40;;;;;;;12.83;65.07;95971.25;5038866;28;20797;-75
2022/10/24 00:36:16;;;;;;;30.60;15.30;;;;;;;12.86;64.77;95973.41;5021294;28;20971;-75
2022/10/24 00:38:41;;;;;;;30.88;16.23;;;;;;;12.75;64.81;95955.81;5036793;28;20052;-75
2022/10/24 00:41:07;;;;;;;27.48;14.20;;;;;;;12.69;64.86;95952.38;5038766;28;20053;-75
2022/10/24 00:43:32;;;;;;;24.13;13.73;;;;;;;12.82;64.81;95971.53;5020615;28;20051;-75
2022/10/24 00:46:00;;;;;;;30.33;14.65;;;;;;;12.41;65.02;95928.19;5017482;28;20052;-76
2022/10/24 00:48:37;;;;;;;28.90;14.70;;;;;;;12.78;65.06;95979.25;5001152;28;20050;-76
2022/10/24 00:51:14;;;;;;;28.40;14.98;;;;;;;12.72;65.13;95970.50;5019227;28;20052;-76
2022/10/24 00:53:45;;;;;;;27.13;13.82;;;;;;;12.24;65.67;95917.81;5001300;28;20087;-75
2022/10/24 00:56:12;;;;;;;23.40;13.43;;;;;;;12.01;65.77;95883.75;5019352;28;20045;-75
2022/10/24 00:58:38;;;;;;;27.35;14.80;;;;;;;12.58;65.70;95973.94;5019346;28;20046;-76
2022/10/24 01:01:04;;;;;;;27.00;12.95;;;;;;;12.58;65.82;95980.06;5018893;28;20053;-76
2022/10/24 01:03:30;;;;;;;28.02;14.13;;;;;;;12.04;65.74;95891.22;4999878;28;20065;-78
2022/10/24 01:06:44;;;;;;;25.35;14.07;;;;;;;12.59;65.73;95980.84;5020757;28;20500;-78
2022/10/24 01:09:25;;;;;;;27.73;14.25;;;;;;;12.62;65.48;95978.47;4920646;28;20043;-78
2022/10/24 01:11:56;;;;;;;23.50;13.25;;;;;;;12.26;65.33;95932.44;5040798;28;20045;-78
2022/10/24 01:15:10;;;;;;;24.35;13.57;;;;;;;12.06;65.65;95897.84;5040294;28;20802;-77
2022/10/24 01:17:44;;;;;;;24.23;13.70;;;;;;;12.57;65.58;95980.34;4938986;29;20043;-76
2022/10/24 01:20:34;;;;;;;28.70;14.38;;;;;;;12.57;65.69;95975.00;5024330;28;20052;-77
2022/10/24 01:23:37;;;;;;;26.65;14.40;;;;;;;12.55;65.74;95972.63;5040333;28;20053;-77
2022/10/24 01:26:21;;;;;;;30.70;14.45;;;;;;;12.55;65.70;95982.44;5021931;28;20041;-77
2022/10/24 01:29:00;;;;;;;22.23;13.27;;;;;;;12.53;65.72;95977.41;5040507;28;20045;-77
2022/10/24 01:31:38;;;;;;;31.23;13.63;;;;;;;12.13;66.22;95927.63;5022094;28;20044;-76
2022/10/24 01:34:14;;;;;;;32.75;14.48;;;;;;;12.29;65.93;95950.50;5040163;28;20041;-78
2022/10/24 01:36:48;;;;;;;24.73;13.18;;;;;;;12.18;66.03;95953.44;5039655;28;20809;-78
2022/10/24 01:39:19;;;;;;;35.25;14.88;;;;;;;12.36;66.16;95971.53;5039320;28;20492;-77
2022/10/24 01:41:46;;;;;;;32.85;14.85;;;;;;;12.35;66.16;95977.94;5021806;28;20071;-77
2022/10/24 01:44:26;;;;;;;28.15;14.13;;;;;;;11.83;66.44;95887.72;5038348;28;20097;-77
2022/10/24 01:47:02;;;;;;;30.77;14.32;;;;;;;12.06;66.05;95934.25;5039242;28;20424;-77
2022/10/24 01:49:32;;;;;;;31.17;14.25;;;;;;;12.01;66.24;95919.13;5039807;28;20045;-77
2022/10/24 01:52:03;;;;;;;29.10;15.00;;;;;;;12.17;66.12;95954.50;5039120;28;20048;-77
2022/10/24 01:54:31;;;;;;;24.00;14.50;;;;;;;12.08;66.00;95937.47;5020751;28;20041;-77
2022/10/24 01:56:57;;;;;;;28.98;14.32;;;;;;;12.29;66.26;95969.13;5038496;28;20128;-77
2022/10/24 01:59:28;;;;;;;24.50;13.65;;;;;;;12.31;66.33;95971.53;5037437;28;20044;-77
2022/10/24 02:02:14;;;;;;;25.73;14.15;;;;;;;12.06;66.02;95943.03;5020837;28;20107;-77
2022/10/24 02:04:49;;;;;;;26.58;14.02;;;;;;;11.92;66.10;95918.84;5039135;28;20120;-77
2022/10/24 02:07:17;;;;;;;28.00;14.80;;;;;;;12.04;66.10;95947.84;5037286;28;20045;-78
2022/10/24 02:09:44;;;;;;;27.35;14.25;;;;;;;11.72;66.08;95915.31;5021183;28;20076;-78
2022/10/24 02:12:13;;;;;;;33.90;14.40;;;;;;;12.11;66.47;95982.16;5021016;28;20132;-78
2022/10/24 02:14:45;;;;;;;32.42;14.75;;;;;;;12.12;66.33;95979.22;5020162;28;20578;-77
2022/10/24 02:17:10;;;;;;;27.05;14.48;;;;;;;11.80;66.60;95928.13;5037954;28;20048;-77
2022/10/24 02:19:36;;;;;;;25.60;13.68;;;;;;;11.84;66.40;95935.28;5020915;28;20041;-77
2022/10/24 02:22:11;;;;;;;29.13;13.75;;;;;;;12.09;66.49;95974.44;5020075;28;20049;-77
2022/10/24 02:24:51;;;;;;;27.60;13.65;;;;;;;12.08;66.45;95972.81;5020414;28;20065;-77
2022/10/24 02:27:28;;;;;;;27.63;14.85;;;;;;;12.02;66.28;95967.75;5038320;28;20514;-77
2022/10/24 02:30:04;;;;;;;29.50;14.55;;;;;;;12.06;66.58;95974.13;5038846;28;20049;-78
2022/10/24 02:32:41;;;;;;;30.08;15.52;;;;;;;12.09;66.61;95973.63;5020270;28;20064;-78
2022/10/24 02:35:09;;;;;;;29.95;14.85;;;;;;;12.09;66.56;95979.75;5038530;28;20045;-78
2022/10/24 02:37:41;;;;;;;29.63;14.68;;;;;;;11.85;66.58;95934.22;5019838;28;20045;-78
2022/10/24 02:40:08;;;;;;;;;;;;;;;12.11;66.63;95968.84;4988076;28;20089;-78
2022/10/24 02:42:35;;;;;;;24.30;14.48;;;;;;;11.86;66.42;95932.38;5038294;28;20601;-77
2022/10/24 02:45:02;;;;;;;30.40;14.05;;;;;;;12.09;66.81;95974.44;5038919;28;20045;-77
2022/10/24 02:47:30;;;;;;;20.48;12.82;;;;;;;11.60;66.95;95907.56;5038650;28;20045;-77
2022/10/24 02:49:55;;;;;;;26.23;12.60;;;;;;;11.90;66.80;95946.75;5019821;28;20036;-77
2022/10/24 02:52:22;;;;;;;28.73;13.73;;;;;;;11.70;66.85;95909.44;5019530;28;20088;-77
2022/10/24 02:54:49;;;;;;;23.83;12.82;;;;;;;12.12;66.61;95968.59;5019966;28;20049;-78
2022/10/24 02:57:14;;;;;;;29.02;13.98;;;;;;;11.87;66.55;95932.13;5038641;28;20044;-77
2022/10/24 02:59:40;;;;;;;27.65;12.90;;;;;;;11.82;66.63;95929.47;5038077;28;20066;-77
2022/10/24 03:02:06;;;;;;;25.33;12.75;;;;;;;12.17;66.46;95975.78;5019819;28;20052;-77
2022/10/24 03:04:32;;;;;;;26.38;13.70;;;;;;;11.94;66.34;95945.94;5019989;28;20053;-77
2022/10/24 03:06:57;;;;;;;28.90;13.18;;;;;;;12.05;66.60;95948.66;5038329;28;20049;-77
2022/10/24 03:09:23;;;;;;;26.10;13.23;;;;;;;11.55;66.42;95859.75;5038141;28;20060;-77
2022/10/24 03:11:48;;;;;;;26.70;12.00;;;;;;;11.90;66.62;95925.50;5038584;28;20087;-77
2022/10/24 03:14:14;;;;;;;21.48;11.70;;;;;;;12.17;66.69;95968.59;5018311;28;20386;-77
2022/10/24 03:16:39;;;;;;;27.70;12.98;;;;;;;11.88;66.45;95922.28;5016718;28;20034;-77
2022/10/24 03:19:05;;;;;;;28.13;12.75;;;;;;;12.11;66.70;95971.50;5000097;28;20663;-76
2022/10/24 03:21:31;;;;;;;26.67;13.13;;;;;;;12.06;66.67;95948.34;5018243;28;20072;-77
2022/10/24 03:23:56;;;;;;;20.33;12.23;;;;;;;12.12;66.44;95965.13;5018109;28;20506;-76
2022/10/24 03:26:22;;;;;;;29.02;11.48;;;;;;;12.09;66.60;95955.81;4999638;28;20041;-77
2022/10/24 03:28:47;;;;;;;23.58;11.82;;;;;;;11.77;66.66;95915.34;5015279;28;20440;-78
2022/10/24 03:31:13;;;;;;;26.15;12.95;;;;;;;11.67;66.48;95910.00;5017893;28;20041;-78
2022/10/24 03:33:38;;;;;;;26.45;11.27;;;;;;;11.63;66.71;95909.69;5017667;28;20511;-78
2022/10/24 03:36:04;;;;;;;22.02;12.05;;;;;;;11.91;66.64;95950.97;5017982;28;20815;-77
2022/10/24 03:38:29;;;;;;;23.98;11.85;;;;;;;11.09;66.61;95830.41;5032764;28;20033;-78
2022/10/24 03:40:55;;;;;;;22.02;11.38;;;;;;;11.92;66.66;95968.53;5037452;28;20040;-78
2022/10/24 03:43:20;;;;;;;22.42;11.73;;;;;;;11.53;66.70;95915.78;5018911;28;20151;-78
2022/10/24 03:45:46;;;;;;;19.98;10.80;;;;;;;11.53;66.95;95926.41;5037486;28;20132;-77
2022/10/24 03:48:12;;;;;;;21.35;10.93;;;;;;;11.52;66.85;95916.03;5037554;28;20044;-77
2022/10/24 03:50:38;;;;;;;28.52;12.60;;;;;;;11.67;66.76;95947.19;5018616;28;20824;-77
2022/10/24 03:53:03;;;;;;;25.42;12.05;;;;;;;11.83;67.31;95983.38;5037976;28;20049;-78
2022/10/24 03:55:29;;;;;;;19.63;10.82;;;;;;;11.22;67.33;95875.03;5019468;28;20033;-76
2022/10/24 03:57:55;;;;;;;17.98;10.73;;;;;;;11.78;67.18;95957.59;5019137;28;20232;-76
2022/10/24 04:00:22;;;;;;;28.00;12.63;;;;;;;11.80;67.36;95963.47;5018417;28;20040;-77
2022/10/24 04:02:50;;;;;;;24.40;12.45;;;;;;;11.76;67.21;95961.56;5037451;28;20048;-78
2022/10/24 04:05:15;;;;;;;25.00;11.77;;;;;;;11.75;67.26;95967.97;5034767;28;20072;-76
2022/10/24 04:07:41;;;;;;;22.83;12.45;;;;;;;11.53;67.07;95917.63;5034850;28;20186;-78
2022/10/24 04:10:07;;;;;;;28.05;12.52;;;;;;;11.78;67.39;95959.47;5017680;28;20123;-78
2022/10/24 04:12:32;;;;;;;34.03;12.85;;;;;;;11.23;67.26;95871.34;5016391;28;20055;-78
2022/10/24 04:14:58;;;;;;;21.70;12.45;;;;;;;11.61;67.32;95933.88;5016761;28;20049;-78
2022/10/24 04:17:24;;;;;;;22.20;12.23;;;;;;;11.74;67.53;95953.88;5033448;28;20492;-78
2022/10/24 04:19:49;;;;;;;25.83;11.23;;;;;;;11.40;67.28;95908.31;5023517;28;20042;-78
2022/10/24 04:22:15;;;;;;;26.23;12.35;;;;;;;11.73;67.36;95952.25;4996967;28;20046;-77
2022/10/24 04:24:40;;;;;;;23.40;12.10;;;;;;;11.72;67.44;95955.97;4986625;28;20810;-78
2022/10/24 04:27:07;;;;;;;26.23;12.35;;;;;;;11.70;67.17;95957.28;4988338;28;20077;-78
2022/10/24 04:29:33;;;;;;;31.00;12.30;;;;;;;11.25;67.25;95886.22;4995310;28;20886;-77
2022/10/24 04:31:59;;;;;;;32.95;15.68;;;;;;;11.48;67.42;95920.28;5008587;28;20228;-77
2022/10/24 04:34:24;;;;;;;28.52;13.82;;;;;;;11.12;67.58;95863.59;5002188;28;20033;-77
2022/10/24 04:36:50;;;;;;;23.23;14.48;;;;;;;11.53;67.57;95931.72;5009018;28;20067;-77
2022/10/24 04:39:15;;;;;;;44.95;16.08;;;;;;;11.64;68.04;95969.75;5016318;28;20799;-77
2022/10/24 04:41:41;;;;;;;38.35;16.30;;;;;;;11.72;67.57;95969.25;4991528;28;20080;-77
2022/10/24 04:44:06;;;;;;;46.40;15.80;;;;;;;11.34;67.45;95895.28;5014581;28;20049;-76
2022/10/24 04:46:32;;;;;;;35.47;16.30;;;;;;;11.08;67.58;95927.00;4987890;28;20553;-77
2022/10/24 04:48:57;;;;;;;55.72;16.83;;;;;;;11.08;68.01;95931.53;5001982;28;20061;-77
2022/10/24 04:51:23;;;;;;;38.95;17.13;;;;;;;11.06;67.63;95913.19;5009858;28;20033;-77
2022/10/24 04:53:49;;;;;;;47.05;17.92;;;;;;;11.32;67.32;95931.91;5013576;28;20052;-77
2022/10/24 04:56:14;;;;;;;59.65;18.75;;;;;;;11.27;66.82;95934.56;5005094;28;20045;-76
2022/10/24 04:58:40;;;;;;;43.55;17.63;;;;;;;11.21;66.72;95907.97;5003366;28;20040;-77
2022/10/24 05:01:05;;;;;;;45.53;19.15;;;;;;;11.57;66.17;95956.72;5007941;28;20045;-78
2022/10/24 05:03:31;;;;;;;39.13;19.05;;;;;;;11.69;66.19;95983.06;4988795;28;20950;-77
2022/10/24 05:05:56;;;;;;;42.60;18.60;;;;;;;11.00;66.07;95877.06;5000517;28;20041;-79
2022/10/24 05:08:22;;;;;;;40.80;18.77;;;;;;;11.72;66.15;95982.53;5007298;28;20779;-77
2022/10/24 05:10:47;;;;;;;40.17;19.77;;;;;;;10.93;66.36;95867.75;4989589;28;20053;-80
2022/10/24 05:13:13;;;;;;;42.75;19.40;;;;;;;11.71;66.37;95975.63;4996753;28;20865;-77
2022/10/24 05:15:38;;;;;;;44.30;19.48;;;;;;;11.42;66.37;95931.97;4995050;28;20049;-76
2022/10/24 05:18:04;;;;;;;39.60;17.65;;;;;;;11.29;66.40;95924.47;4998706;28;20131;-77
2022/10/24 05:20:30;;;;;;;42.72;19.27;;;;;;;11.72;66.36;95984.41;4978072;28;20041;-77
2022/10/24 05:22:55;;;;;;;48.80;20.15;;;;;;;10.69;66.46;95827.56;4998354;28;20049;-80
2022/10/24 05:25:21;;;;;;;54.55;18.20;;;;;;;11.71;66.50;95982.78;4985070;28;20871;-77
2022/10/24 05:27:47;;;;;;;53.25;19.48;;;;;;;11.76;66.30;95985.50;5003397;28;20033;-77
2022/10/24 05:30:12;;;;;;;55.35;20.08;;;;;;;11.33;66.21;95917.56;5000649;28;20041;-77
2022/10/24 05:32:38;;;;;;;44.65;19.67;;;;;;;11.55;66.19;95956.19;4998675;28;20140;-77
2022/10/24 05:35:04;;;;;;;37.78;18.27;;;;;;;11.32;66.09;95914.13;4981464;28;20045;-77
2022/10/24 05:37:29;;;;;;;44.05;19.35;;;;;;;11.48;66.29;95938.88;5002863;28;20040;-77
2022/10/24 05:39:55;;;;;;;40.55;18.33;;;;;;;11.47;66.31;95931.97;4985765;28;20056;-77
2022/10/24 05:42:20;;;;;;;55.30;18.40;;;;;;;11.41;66.21;95923.19;5004415;28;20052;-78
2022/10/24 05:44:46;;;;;;;40.42;18.35;;;;;;;11.70;65.99;95971.38;4972060;28;20049;-77
2022/10/24 05:47:11;;;;;;;41.97;17.60;;;;;;;11.47;65.82;95924.00;5001112;28;20049;-77
2022/10/24 05:49:37;;;;;;;44.92;18.23;;;;;;;11.81;65.80;95970.38;4989092;28;20131;-77
2022/10/24 05:52:03;;;;;;;39.13;17.20;;;;;;;11.92;65.86;95995.91;5004582;28;20041;-77
2022/10/24 05:54:28;;;;;;;41.95;16.45;;;;;;;11.51;65.64;95931.19;4990163;28;20567;-77
2022/10/24 05:56:53;;;;;;;52.65;16.27;;;;;;;11.79;65.11;95998.28;5007912;28;20049;-77
2022/10/24 05:59:20;;;;;;;35.53;15.63;;;;;;;11.70;65.17;96003.25;4989578;28;20045;-79
2022/10/24 06:01:47;;;;;;;41.58;16.65;;;;;;;11.53;65.65;95989.34;4988047;28;20491;-80
2022/10/24 06:04:12;;;;;;;49.13;16.70;;;;;;;11.65;65.85;96021.03;5008200;28;20107;-81
2022/10/24 06:06:40;;;;;;;44.08;17.50;;;;;;;11.00;65.90;95916.88;4999174;28;21894;-80
2022/10/24 06:09:05;;;;;;;46.35;18.80;;;;;;;10.75;65.75;95891.03;5005187;28;20180;-79
2022/10/24 06:11:31;;;;;;;63.47;21.13;;;;;;;11.62;66.13;96017.03;4983009;28;21174;-78
2022/10/24 06:13:57;;;;;;;52.20;17.90;;;;;;;11.61;65.45;96024.19;4988101;28;20192;-77
2022/10/24 06:16:23;;;;;;;32.80;16.40;;;;;;;10.76;65.83;95882.00;5005028;28;20083;-77
2022/10/24 06:18:49;;;;;;;53.60;18.50;;;;;;;11.72;65.31;96014.44;4993111;28;20033;-77
2022/10/24 06:21:15;;;;;;;42.13;16.52;;;;;;;11.73;65.35;96007.25;5003441;28;20068;-78
2022/10/24 06:23:41;;;;;;;46.55;17.55;;;;;;;11.64;65.05;95976.94;5012828;28;20746;-78
2022/10/24 06:26:09;;;;;;;34.25;15.23;;;;;;;11.97;64.54;96017.22;5006163;28;20102;-79
2022/10/24 06:28:35;;;;;;;34.70;15.93;;;;;;;11.78;64.75;95980.72;5011130;28;20041;-77
2022/10/24 06:31:02;;;;;;;37.10;15.55;;;;;;;12.04;64.49;96026.78;5005484;28;20088;-77
2022/10/24 06:33:28;;;;;;;31.30;16.63;;;;;;;11.64;64.86;95956.47;5005289;28;20566;-77
2022/10/24 06:35:53;;;;;;;37.63;17.80;;;;;;;11.47;64.90;95929.31;5008406;28;20136;-79
2022/10/24 06:38:18;;;;;;;39.35;16.60;;;;;;;11.82;64.95;95981.81;4989836;28;20045;-78
2022/10/24 06:40:44;;;;;;;46.30;18.13;;;;;;;11.75;64.61;95965.31;4999806;28;20886;-76
2022/10/24 06:43:09;;;;;;;43.63;17.95;;;;;;;11.83;64.96;95972.75;5004421;28;20045;-76
2022/10/24 06:45:37;;;;;;;42.65;19.05;;;;;;;11.93;64.90;95992.19;4999987;28;20157;-77
2022/10/24 06:48:02;;;;;;;35.78;16.38;;;;;;;12.33;64.74;96030.59;5001059;28;20164;-78
2022/10/24 06:50:28;;;;;;;42.15;17.80;;;;;;;12.09;64.52;95997.56;5002661;28;20049;-77
2022/10/24 06:52:54;;;;;;;44.13;18.85;;;;;;;12.27;64.73;96023.66;4976356;28;20069;-77
2022/10/24 06:55:20;;;;;;;38.17;17.60;;;;;;;12.33;64.46;96025.25;4985398;28;20041;-83
2022/10/24 06:57:46;;;;;;;38.08;17.52;;;;;;;12.40;64.45;96040.97;4991849;28;20041;-80
2022/10/24 07:00:13;;;;;;;32.15;16.38;;;;;;;12.54;63.80;96044.72;5005993;28;20055;-79
2022/10/24 07:02:38;;;;;;;33.78;17.02;;;;;;;12.18;63.77;95977.38;5006948;28;20946;-79
2022/10/24 07:05:07;;;;;;;38.47;18.13;;;;;;;12.02;63.77;95925.22;5007456;28;20089;-78
2022/10/24 07:07:33;;;;;;;39.17;17.02;;;;;;;12.01;63.70;95921.78;5009973;28;20138;-80
2022/10/24 07:09:58;;;;;;;44.47;20.02;;;;;;;12.24;63.98;95963.00;5002662;28;20511;-79
2022/10/24 07:12:24;;;;;;;42.20;18.77;;;;;;;12.53;64.51;96043.09;4982577;28;20045;-78
2022/10/24 07:14:50;;;;;;;32.10;18.23;;;;;;;12.19;64.53;95986.94;4998299;28;20524;-77
2022/10/24 07:17:16;;;;;;;35.42;17.27;;;;;;;12.63;64.59;96035.16;5005192;28;20044;-76
2022/10/24 07:19:42;;;;;;;27.17;15.52;;;;;;;12.65;63.98;96012.53;4983772;28;20905;-76
2022/10/24 07:22:08;;;;;;;44.17;19.75;;;;;;;12.82;63.62;96017.56;5002810;28;20064;-77
2022/10/24 07:24:34;;;;;;;33.53;17.65;;;;;;;12.88;63.47;96010.41;5001201;28;20050;-77
2022/10/24 07:26:59;;;;;;;46.80;16.95;;;;;;;12.71;63.23;95986.72;4998543;28;20081;-77
2022/10/24 07:29:25;;;;;;;1173.10;121.57;;;;;;;12.72;63.05;95972.34;5001852;28;20872;-81
2022/10/24 07:31:50;;;;;;;37.95;16.00;;;;;;;13.03;63.13;96034.34;5001815;28;20850;-79
2022/10/24 07:34:16;;;;;;;32.83;17.38;;;;;;;12.83;62.96;95987.22;4992401;28;20046;-77
2022/10/24 07:36:41;;;;;;;43.55;17.75;;;;;;;12.60;63.52;95967.28;4985780;28;20037;-77
2022/10/24 07:39:07;;;;;;;41.72;16.27;;;;;;;12.93;63.12;96000.53;4985351;28;20048;-77
2022/10/24 07:41:36;;;;;;;35.40;17.88;;;;;;;12.78;62.79;95963.28;5005727;28;20148;-78
2022/10/24 07:44:01;;;;;;;46.55;19.83;;;;;;;13.00;62.58;95977.09;5003711;28;20393;-79
2022/10/24 07:46:27;;;;;;;41.55;18.98;;;;;;;13.41;62.38;96033.00;5010180;28;20048;-78
2022/10/24 07:48:53;;;;;;;36.25;15.88;;;;;;;13.51;62.22;96027.63;4985573;28;20049;-79
2022/10/24 07:51:19;;;;;;;50.20;19.30;;;;;;;13.28;62.28;95985.59;5004041;28;20204;-82
2022/10/24 07:53:46;;;;;;;44.30;19.98;;;;;;;13.16;61.45;95969.91;5006155;28;20144;-82
2022/10/24 07:56:16;;;;;;;44.20;19.27;;;;;;;13.73;61.27;96020.09;4992285;28;20633;-79
2022/10/24 07:58:43;;;;;;;35.30;18.70;;;;;;;13.53;61.18;96004.97;4996737;28;20046;-79
2022/10/24 08:01:12;;;;;;;44.30;19.83;;;;;;;13.23;61.15;95965.09;4973382;28;20490;-78
2022/10/24 08:03:39;;;;;;;42.55;18.13;;;;;;;13.70;61.08;96022.50;4997656;28;20669;-79
2022/10/24 08:06:15;;;;;;;35.95;17.45;;;;;;;13.71;61.10;96006.25;4983281;28;20218;-79
2022/10/24 08:08:40;;;;;;;44.35;20.48;;;;;;;13.44;60.82;95953.31;4980690;28;20048;-82
2022/10/24 08:11:11;;;;;;;47.53;20.70;;;;;;;13.67;60.68;95969.72;4989644;28;20045;-79
2022/10/24 08:13:37;;;;;;;38.65;20.77;;;;;;;13.36;60.62;95931.75;4978095;28;20054;-78
2022/10/24 08:16:07;;;;;;;43.15;18.85;;;;;;;13.97;60.80;96006.13;4985792;28;20057;-78
2022/10/24 08:18:33;;;;;;;49.33;18.63;;;;;;;14.08;60.54;96010.34;4981646;28;21506;-79
2022/10/24 08:21:01;;;;;;;28.95;15.38;;;;;;;13.71;60.44;95954.81;4999984;28;20056;-78
2022/10/24 08:23:27;;;;;;;28.05;17.02;;;;;;;13.84;60.26;95955.00;5001618;28;20048;-78
2022/10/24 08:25:52;;;;;;;34.55;16.23;;;;;;;13.91;60.27;95979.47;5001365;28;20833;-78
2022/10/24 08:28:18;;;;;;;31.25;15.05;;;;;;;14.14;60.42;96010.03;4987328;28;20543;-78
2022/10/24 08:30:43;;;;;;;39.50;17.80;;;;;;;13.70;59.94;95916.69;4985393;28;20813;-84
2022/10/24 08:33:09;;;;;;;46.50;19.02;;;;;;;13.78;59.84;95923.31;5012304;28;20071;-79
2022/10/24 08:35:34;;;;;;;47.60;20.45;;;;;;;14.02;60.09;95958.09;5006036;28;20218;-77
2022/10/24 08:38:00;;;;;;;39.40;19.15;;;;;;;13.94;59.84;95924.81;5009082;28;20044;-77
2022/10/24 08:40:27;;;;;;;46.55;19.58;;;;;;;14.27;59.90;95968.59;5002134;28;20153;-79
2022/10/24 08:42:52;;;;;;;43.97;19.50;;;;;;;14.36;60.01;95974.94;4985484;28;20056;-79
2022/10/24 08:45:53;;;;;;;49.75;18.77;;;;;;;14.48;59.85;95978.09;4998903;28;20160;-80
2022/10/24 08:48:27;;;;;;;48.65;20.70;;;;;;;14.42;60.09;95963.19;4977549;28;20132;-78
2022/10/24 08:51:17;;;;;;;48.10;21.58;;;;;;;14.53;59.50;95953.25;4982992;28;20072;-78
2022/10/24 08:53:45;;;;;;;49.90;19.63;;;;;;;14.27;60.28;95904.56;4982264;28;20843;-78
2022/10/24 08:56:10;;;;;;;44.70;19.25;;;;;;;14.26;59.78;95879.78;5001205;28;20120;-79
2022/10/24 08:58:41;;;;;;;47.47;19.17;;;;;;;14.70;59.16;95937.63;4984822;28;20049;-80
2022/10/24 09:01:15;;;;;;;39.35;17.50;;;;;;;14.67;59.34;95916.81;5002723;28;20144;-78
2022/10/24 09:03:43;;;;;;;48.58;18.10;;;;;;;15.13;59.05;95970.59;4981531;28;20664;-78
2022/10/24 09:06:30;;;;;;;40.53;18.65;;;;;;;14.94;58.31;95927.00;5003745;28;20052;-79
2022/10/24 09:09:10;;;;;;;45.35;19.08;;;;;;;15.25;59.17;95962.19;5006162;28;20135;-79
2022/10/24 09:11:49;;;;;;;41.55;19.13;;;;;;;15.35;58.78;95962.06;5002399;28;20061;-79
2022/10/24 09:14:17;;;;;;;34.95;17.20;;;;;;;14.98;59.22;95899.41;4999131;28;20045;-78
2022/10/24 09:16:47;;;;;;;42.88;17.80;;;;;;;15.51;58.71;95960.03;5005557;28;20106;-78
2022/10/24 09:19:17;;;;;;;40.05;17.08;;;;;;;14.84;58.13;95858.44;5002711;28;20037;-78
2022/10/24 09:21:43;;;;;;;42.85;17.73;;;;;;;15.20;57.85;95895.44;5003776;28;20041;-79
2022/10/24 09:24:36;;;;;;;39.47;16.52;;;;;;;15.33;57.77;95913.47;5002065;28;20793;-79
2022/10/24 09:27:04;;;;;;;37.03;15.52;;;;;;;15.20;57.63;95892.75;4999140;28;20041;-78
2022/10/24 09:29:31;;;;;;;30.67;16.48;;;;;;;15.72;57.30;95956.06;4995613;28;20049;-77
2022/10/24 09:31:58;;;;;;;37.45;15.20;;;;;;;15.44;57.02;95893.56;4985476;28;20746;-78
2022/10/24 09:34:24;;;;;;;33.88;15.15;;;;;;;15.67;57.21;95908.78;4998165;28;20048;-83
2022/10/24 09:36:50;;;;;;;34.00;15.15;;;;;;;15.99;57.74;95945.53;5002296;28;20048;-79
2022/10/24 09:39:25;;;;;;;33.38;14.43;;;;;;;16.15;57.41;95948.81;4991036;28;20042;-78
2022/10/24 09:41:51;;;;;;;24.05;12.55;;;;;;;16.04;56.49;95925.94;4991509;28;20511;-79
2022/10/24 09:44:28;;;;;;;25.33;12.77;;;;;;;15.96;56.61;95895.28;4990652;28;20056;-79
2022/10/24 09:46:53;;;;;;;28.95;12.82;;;;;;;16.17;56.84;95898.47;5005566;28;20049;-79
2022/10/24 09:49:22;;;;;;;24.15;12.18;;;;;;;16.30;56.29;95900.41;4989202;28;20046;-79
2022/10/24 09:52:24;;;;;;;26.85;12.63;;;;;;;17.34;55.35;95934.78;5016700;28;20033;-78
2022/10/24 09:55:23;;;;;;;25.73;12.77;;;;;;;18.46;51.80;95925.94;5007880;28;20034;-78
2022/10/24 09:57:54;;;;;;;31.02;11.13;;;;;;;19.63;49.04;95923.75;4977518;28;20049;-79
2022/10/24 10:00:27;;;;;;;26.90;11.17;;;;;;;20.80;46.12;95909.41;5007745;28;20049;-79
2022/10/24 10:02:58;;;;;;;25.77;11.07;;;;;;;21.80;43.49;95914.28;5011033;28;20602;-79
2022/10/24 10:05:23;;;;;;;23.48;10.13;;;;;;;22.82;41.63;95919.25;5010708;28;20414;-79
2022/10/24 10:07:50;;;;;;;22.00;10.63;;;;;;;23.28;39.77;95874.81;5011755;28;20133;-79
2022/10/24 10:10:36;;;;;;;28.42;9.77;;;;;;;24.44;38.93;95922.94;4998289;28;20037;-80
2022/10/24 10:13:14;;;;;;;23.88;9.68;;;;;;;25.03;37.17;95912.19;5009998;28;20511;-79
2022/10/24 10:15:43;;;;;;;26.48;9.18;;;;;;;25.53;35.52;95911.53;5005642;28;20140;-80
2022/10/24 10:18:37;;;;;;;20.73;10.07;;;;;;;25.83;34.69;95905.66;4988601;28;20703;-83
2022/10/24 10:21:08;;;;;;;19.90;9.88;;;;;;;25.46;34.60;95777.53;4992322;28;20139;-81
2022/10/24 10:23:48;;;;;;;17.98;9.05;;;;;;;26.05;34.37;95864.22;5005239;28;20077;-79
2022/10/24 10:26:20;;;;;;;22.67;9.60;;;;;;;26.23;34.00;95898.03;4996496;28;20046;-79
2022/10/24 10:28:57;;;;;;;26.83;8.02;;;;;;;25.43;33.95;95789.09;4999656;28;20053;-78
2022/10/24 10:31:27;;;;;;;19.20;7.28;;;;;;;26.16;33.38;95895.16;4971642;28;20591;-78
2022/10/24 10:34:12;;;;;;;22.38;8.23;;;;;;;25.80;34.06;95893.56;4971300;28;20864;-79
2022/10/24 10:37:08;;;;;;;18.08;7.68;;;;;;;25.88;34.00;95881.72;4983391;28;20116;-79
2022/10/24 10:40:01;;;;;;;20.98;7.60;;;;;;;25.90;34.31;95881.38;4989873;28;20037;-78
2022/10/24 10:42:38;;;;;;;21.95;8.38;;;;;;;25.87;34.28;95876.63;4981585;28;20044;-78
2022/10/24 10:45:39;;;;;;;20.02;8.00;;;;;;;25.96;34.34;95883.47;4986901;28;20048;-78
2022/10/24 10:48:33;;;;;;;20.00;7.87;;;;;;;26.02;34.21;95873.09;4992277;28;20054;-78
2022/10/24 10:51:17;;;;;;;27.27;7.95;;;;;;;26.04;34.41;95871.59;5001270;28;20069;-78
2022/10/24 10:53:59;;;;;;;19.67;6.82;;;;;;;26.02;33.98;95854.84;4977462;28;20231;-78
2022/10/24 10:56:27;;;;;;;;;;;;;;;25.85;34.43;95858.00;4982001;28;20042;-78
2022/10/24 10:59:16;;;;;;;18.17;7.15;;;;;;;25.59;34.99;95820.53;4994432;28;19921;-78
2022/10/24 11:02:02;;;;;;;27.38;7.93;;;;;;;25.39;35.17;95835.19;4981004;28;20043;-76
2022/10/24 11:04:42;;;;;;;21.02;7.15;;;;;;;25.40;35.19;95852.25;4949827;28;20505;-78
2022/10/24 11:07:07;;;;;;;24.15;8.70;;;;;;;25.54;35.02;95845.22;4975462;28;20049;-77
2022/10/24 11:09:52;;;;;;;23.02;8.85;;;;;;;25.43;35.05;95837.97;4981121;28;20131;-80
2022/10/24 11:12:18;;;;;;;18.05;7.80;;;;;;;25.38;34.54;95849.88;4988416;28;20044;-79
2022/10/24 11:15:06;;;;;;;25.83;8.65;;;;;;;25.53;34.75;95834.72;4984879;28;20042;-78
2022/10/24 11:17:49;;;;;;;21.92;8.45;;;;;;;25.66;34.80;95828.84;4987478;28;20049;-78
2022/10/24 11:20:20;;;;;;;22.40;7.47;;;;;;;25.39;34.40;95805.31;4990111;28;20289;-78
2022/10/24 11:22:49;;;;;;;;;;;;;;;25.76;34.50;95827.50;4995590;28;20041;-78
2022/10/24 11:25:20;;;;;;;28.75;8.88;;;;;;;25.86;34.60;95831.59;5000617;28;20334;-78
2022/10/24 11:27:56;;;;;;;20.05;7.95;;;;;;;25.84;33.91;95793.91;5010036;28;20449;-79
2022/10/24 11:30:35;;;;;;;16.73;7.40;;;;;;;25.70;33.75;95769.16;4985203;28;20463;-79
2022/10/24 11:33:06;;;;;;;16.05;7.82;;;;;;;25.91;33.86;95798.72;4991601;28;20084;-79